createdAt,value
2022-11-15T00:01:31.318Z,22.77
2022-11-15T00:04:17.007Z,14.90
2022-11-15T00:07:01.991Z,16.77
2022-11-15T00:09:47.374Z,12.27
2022-11-15T00:12:32.712Z,23.85
2022-11-15T00:15:17.932Z,21.92
2022-11-15T00:18:04.533Z,13.43
2022-11-15T00:20:49.644Z,14.60
2022-11-15T00:23:35.069Z,13.95
2022-11-15T00:26:20.373Z,11.25
2022-11-15T00:29:05.536Z,11.00
2022-11-15T00:31:50.892Z,7.32
2022-11-15T00:34:36.063Z,10.13
2022-11-15T00:37:21.395Z,13.60
2022-11-15T00:40:07.000Z,7.07
2022-11-15T00:42:52.153Z,6.45
2022-11-15T00:45:37.280Z,8.27
2022-11-15T00:48:22.745Z,10.93
2022-11-15T00:51:07.905Z,14.20
2022-11-15T00:53:52.948Z,15.35
2022-11-15T00:56:38.098Z,33.65
2022-11-15T00:59:23.211Z,16.67
2022-11-15T01:02:08.503Z,17.92
2022-11-15T01:04:53.742Z,12.70
2022-11-15T01:07:38.968Z,10.63
2022-11-15T01:10:24.867Z,10.75
2022-11-15T01:13:09.919Z,12.07
2022-11-15T01:15:55.097Z,6.85
2022-11-15T01:18:40.731Z,7.63
2022-11-15T01:21:26.128Z,8.07
2022-11-15T01:24:14.304Z,10.80
2022-11-15T01:26:59.665Z,11.40
2022-11-15T01:29:45.075Z,9.85
2022-11-15T01:32:31.374Z,10.05
2022-11-15T01:35:16.464Z,10.07
2022-11-15T01:38:01.853Z,9.48
2022-11-15T01:40:47.285Z,9.90
2022-11-15T01:43:35.915Z,9.88
2022-11-15T01:46:24.777Z,11.15
2022-11-15T01:49:15.449Z,10.80
2022-11-15T01:52:02.699Z,11.75
2022-11-15T01:54:53.061Z,11.13
2022-11-15T01:57:40.454Z,15.90
2022-11-15T02:00:26.267Z,15.15
2022-11-15T02:03:11.761Z,14.85
2022-11-15T02:05:57.114Z,17.92
2022-11-15T02:08:43.075Z,14.07
2022-11-15T02:11:29.192Z,12.65
2022-11-15T02:14:16.475Z,11.18
2022-11-15T02:17:39.315Z,12.82
2022-11-15T02:20:53.265Z,25.95
2022-11-15T02:23:57.045Z,23.25
2022-11-15T02:27:39.063Z,15.77
2022-11-15T02:30:49.207Z,16.90
2022-11-15T02:33:58.774Z,11.68
2022-11-15T02:37:21.717Z,15.07
2022-11-15T02:40:31.802Z,15.30
2022-11-15T02:43:44.900Z,12.55
2022-11-15T02:47:00.705Z,17.60
2022-11-15T02:49:55.401Z,14.52
2022-11-15T02:52:40.368Z,15.05
2022-11-15T02:55:37.069Z,11.13
2022-11-15T02:58:57.307Z,11.10
2022-11-15T03:01:57.205Z,11.93
2022-11-15T03:04:58.306Z,13.38
2022-11-15T03:08:02.250Z,14.20
2022-11-15T03:10:48.075Z,12.75
2022-11-15T03:13:42.070Z,11.98
2022-11-15T03:16:37.906Z,10.18
2022-11-15T03:19:41.340Z,8.80
2022-11-15T03:22:29.934Z,7.90
2022-11-15T03:25:20.810Z,6.95
2022-11-15T03:28:10.558Z,4.93
2022-11-15T03:30:57.457Z,4.97
2022-11-15T03:33:44.296Z,4.88
2022-11-15T03:36:32.239Z,5.30
2022-11-15T03:39:20.778Z,5.40
2022-11-15T03:42:15.282Z,7.70
2022-11-15T03:45:12.967Z,8.05
2022-11-15T03:48:15.825Z,8.13
2022-11-15T03:51:01.240Z,7.10
2022-11-15T03:53:47.019Z,6.93
2022-11-15T03:56:32.917Z,10.65
2022-11-15T03:59:18.251Z,7.93
2022-11-15T04:02:03.675Z,7.05
2022-11-15T04:04:48.735Z,6.45
2022-11-15T04:07:33.912Z,8.10
2022-11-15T04:10:19.975Z,7.88
2022-11-15T04:13:05.329Z,6.57
2022-11-15T04:15:50.470Z,7.40
2022-11-15T04:18:35.622Z,5.85
2022-11-15T04:21:39.796Z,6.63
2022-11-15T04:24:25.290Z,5.45
2022-11-15T04:27:11.040Z,5.80
2022-11-15T04:29:57.910Z,6.65
2022-11-15T04:32:43.052Z,6.25
2022-11-15T04:35:28.687Z,6.70
2022-11-15T04:38:13.914Z,9.88
2022-11-15T04:40:59.036Z,8.55
2022-11-15T04:43:44.216Z,9.00
2022-11-15T04:46:29.543Z,6.50
2022-11-15T04:49:14.715Z,8.23
2022-11-15T04:52:00.007Z,11.43
2022-11-15T04:54:45.642Z,8.80
2022-11-15T04:57:30.754Z,8.02
2022-11-15T05:00:17.518Z,9.60
2022-11-15T05:03:21.675Z,8.35
2022-11-15T05:06:07.587Z,7.93
2022-11-15T05:08:53.261Z,9.50
2022-11-15T05:11:38.753Z,8.02
2022-11-15T05:14:23.882Z,8.18
2022-11-15T05:17:08.939Z,8.27
2022-11-15T05:19:54.153Z,13.98
2022-11-15T05:22:39.409Z,15.15
2022-11-15T05:25:25.304Z,16.33
2022-11-15T05:28:10.922Z,11.23
2022-11-15T05:31:10.312Z,9.60
2022-11-15T05:33:57.324Z,10.30
2022-11-15T05:36:44.119Z,10.98
2022-11-15T05:39:29.473Z,9.60
2022-11-15T05:42:16.043Z,9.02
2022-11-15T05:45:03.766Z,9.15
2022-11-15T05:47:50.868Z,9.73
2022-11-15T05:50:39.514Z,10.25
2022-11-15T05:53:26.111Z,8.98
2022-11-15T05:56:11.694Z,9.98
2022-11-15T05:58:59.852Z,10.10
2022-11-15T06:01:45.575Z,8.38
2022-11-15T06:04:30.814Z,8.05
2022-11-15T06:07:16.646Z,7.93
2022-11-15T06:10:02.427Z,11.55
2022-11-15T06:12:47.755Z,12.32
2022-11-15T06:15:35.186Z,12.48
2022-11-15T06:18:20.510Z,12.38
2022-11-15T06:21:06.753Z,13.73
2022-11-15T06:23:51.840Z,12.15
2022-11-15T06:26:37.114Z,12.00
2022-11-15T06:29:22.254Z,16.85
2022-11-15T06:32:07.993Z,12.35
2022-11-15T06:34:53.333Z,13.57
2022-11-15T06:37:38.369Z,11.73
2022-11-15T06:40:23.933Z,14.80
2022-11-15T06:43:09.246Z,14.15
2022-11-15T06:45:54.787Z,13.32
2022-11-15T06:48:40.386Z,14.40
2022-11-15T06:51:25.352Z,12.18
2022-11-15T06:54:10.451Z,11.00
2022-11-15T06:56:55.695Z,12.60
2022-11-15T06:59:41.000Z,11.90
2022-11-15T07:02:26.945Z,42.75
2022-11-15T07:05:13.036Z,25.40
2022-11-15T07:07:59.512Z,48.88
2022-11-15T07:10:44.855Z,39.10
2022-11-15T07:13:35.425Z,24.17
2022-11-15T07:16:20.981Z,13.02
2022-11-15T07:19:06.272Z,18.83
2022-11-15T07:21:51.448Z,15.50
2022-11-15T07:24:36.760Z,11.35
2022-11-15T07:27:22.259Z,12.10
2022-11-15T07:30:08.581Z,11.70
2022-11-15T07:32:58.253Z,13.77
2022-11-15T07:35:43.774Z,14.88
2022-11-15T07:38:30.129Z,13.90
2022-11-15T07:41:15.611Z,15.60
2022-11-15T07:44:01.291Z,12.75
2022-11-15T07:46:46.750Z,14.30
2022-11-15T07:49:31.967Z,11.82
2022-11-15T07:52:17.381Z,49.47
2022-11-15T07:55:02.716Z,46.92
2022-11-15T07:57:48.004Z,19.63
2022-11-15T08:00:33.516Z,16.70
2022-11-15T08:03:18.569Z,12.57
2022-11-15T08:06:04.744Z,10.40
2022-11-15T08:08:49.850Z,9.80
2022-11-15T08:11:34.953Z,10.00
2022-11-15T08:14:22.388Z,8.38
2022-11-15T08:17:07.682Z,8.30
2022-11-15T08:19:53.001Z,8.43
2022-11-15T08:22:38.123Z,12.82
2022-11-15T08:25:24.459Z,11.52
2022-11-15T08:28:11.450Z,11.07
2022-11-15T08:30:56.689Z,10.75
2022-11-15T08:33:42.258Z,10.05
2022-11-15T08:36:32.059Z,10.23
2022-11-15T08:39:22.258Z,8.77
2022-11-15T08:42:07.444Z,8.93
2022-11-15T08:44:52.748Z,8.68
2022-11-15T08:47:38.236Z,9.18
2022-11-15T08:50:24.084Z,9.40
2022-11-15T08:53:11.597Z,8.77
2022-11-15T08:55:56.934Z,16.58
2022-11-15T08:58:43.565Z,17.00
2022-11-15T09:01:28.982Z,19.98
2022-11-15T09:04:14.093Z,17.92
2022-11-15T09:06:59.310Z,16.30
2022-11-15T09:09:44.885Z,13.40
2022-11-15T09:12:30.153Z,11.25
2022-11-15T09:15:16.755Z,7.35
2022-11-15T09:18:01.919Z,7.18
2022-11-15T09:20:47.442Z,6.40
2022-11-15T09:23:32.758Z,6.50
2022-11-15T09:26:19.076Z,6.50
2022-11-15T09:29:04.473Z,5.38
2022-11-15T09:31:49.571Z,5.38
2022-11-15T09:34:35.035Z,4.82
2022-11-15T09:37:20.255Z,4.30
2022-11-15T09:40:06.312Z,4.10
2022-11-15T09:43:08.896Z,5.80
2022-11-15T09:46:03.277Z,4.53
2022-11-15T09:48:53.975Z,4.65
2022-11-15T09:51:55.174Z,4.32
2022-11-15T09:54:52.369Z,3.38
2022-11-15T09:57:21.571Z,4.97
2022-11-15T10:00:30.870Z,4.80
2022-11-15T10:03:09.563Z,4.05
2022-11-15T10:05:48.077Z,3.97
2022-11-15T10:08:29.415Z,5.53
2022-11-15T10:11:22.871Z,3.67
2022-11-15T10:13:49.493Z,3.50
2022-11-15T10:16:28.059Z,3.67
2022-11-15T10:19:24.454Z,4.68
2022-11-15T10:22:12.933Z,4.53
2022-11-15T10:24:43.592Z,3.10
2022-11-15T10:27:14.180Z,4.25
2022-11-15T10:29:49.815Z,7.38
2022-11-15T10:32:19.664Z,8.80
2022-11-15T10:34:49.663Z,3.47
2022-11-15T10:37:29.309Z,3.53
2022-11-15T10:40:28.617Z,2.75
2022-11-15T10:43:19.226Z,4.28
2022-11-15T10:45:47.016Z,2.85
2022-11-15T10:48:13.617Z,3.00
2022-11-15T10:50:48.263Z,4.53
2022-11-15T10:53:29.315Z,4.00
2022-11-15T10:55:59.495Z,4.45
2022-11-15T10:58:32.882Z,4.60
2022-11-15T11:01:16.901Z,3.67
2022-11-15T11:03:45.703Z,5.85
2022-11-15T11:06:18.261Z,4.93
2022-11-15T11:09:00.237Z,3.75
2022-11-15T11:11:49.981Z,5.78
2022-11-15T11:14:28.706Z,3.75
2022-11-15T11:17:02.044Z,5.28
2022-11-15T11:19:40.807Z,5.30
2022-11-15T11:22:19.086Z,3.95
2022-11-15T11:25:02.568Z,4.88
2022-11-15T11:27:40.955Z,3.83
2022-11-15T11:30:18.753Z,5.18
2022-11-15T11:33:11.535Z,5.35
2022-11-15T11:36:01.962Z,6.13
2022-11-15T11:38:47.010Z,4.53
2022-11-15T11:41:32.057Z,4.70
2022-11-15T11:44:40.778Z,4.30
2022-11-15T11:47:15.406Z,4.68
2022-11-15T11:49:53.343Z,5.32
2022-11-15T11:52:27.960Z,7.25
2022-11-15T11:55:06.736Z,5.63
2022-11-15T11:57:33.332Z,4.82
2022-11-15T12:00:23.364Z,5.68
2022-11-15T12:02:56.025Z,4.40
2022-11-15T12:05:38.519Z,4.20
2022-11-15T12:08:21.168Z,4.93
2022-11-15T12:10:54.187Z,5.85
2022-11-15T12:13:25.470Z,5.55
2022-11-15T12:16:01.477Z,5.53
2022-11-15T12:18:30.817Z,4.65
2022-11-15T12:21:02.581Z,4.10
2022-11-15T12:23:43.821Z,3.85
2022-11-15T12:26:22.404Z,6.35
2022-11-15T12:29:07.589Z,3.88
2022-11-15T12:31:34.792Z,4.38
2022-11-15T12:34:07.597Z,4.22
2022-11-15T12:36:40.402Z,4.90
2022-11-15T12:39:09.959Z,5.72
2022-11-15T12:42:06.363Z,6.07
2022-11-15T12:44:32.994Z,4.60
2022-11-15T12:47:03.905Z,4.20
2022-11-15T12:49:30.482Z,3.70
2022-11-15T12:51:59.870Z,5.53
2022-11-15T12:54:28.152Z,5.47
2022-11-15T12:57:18.030Z,6.15
2022-11-15T12:59:56.204Z,4.40
2022-11-15T13:02:26.255Z,4.88
2022-11-15T13:04:55.814Z,5.13
2022-11-15T13:07:40.631Z,7.03
2022-11-15T13:10:13.353Z,4.82
2022-11-15T13:12:46.138Z,5.22
2022-11-15T13:15:12.757Z,6.05
2022-11-15T13:17:48.228Z,3.47
2022-11-15T13:20:17.828Z,4.47
2022-11-15T13:23:05.729Z,3.72
2022-11-15T13:25:51.267Z,3.13
2022-11-15T13:28:17.927Z,3.03
2022-11-15T13:30:47.563Z,5.57
2022-11-15T13:33:21.161Z,3.20
2022-11-15T13:35:51.281Z,2.00
2022-11-15T13:38:33.287Z,2.67
2022-11-15T13:41:11.061Z,6.45
2022-11-15T13:43:38.072Z,4.60
2022-11-15T13:46:05.786Z,2.75
2022-11-15T13:48:34.791Z,3.00
2022-11-15T13:51:10.432Z,3.13
2022-11-15T13:53:41.157Z,2.30
2022-11-15T13:56:08.305Z,3.33
2022-11-15T13:58:39.075Z,2.45
2022-11-15T14:01:06.744Z,2.85
2022-11-15T14:03:47.419Z,3.80
2022-11-15T14:06:16.938Z,4.78
2022-11-15T14:08:58.848Z,5.68
2022-11-15T14:11:25.868Z,5.53
2022-11-15T14:14:13.031Z,3.80
2022-11-15T14:16:45.599Z,3.72
2022-11-15T14:19:21.467Z,21.67
2022-11-15T14:22:08.891Z,4.53
2022-11-15T14:24:35.750Z,5.80
2022-11-15T14:27:23.601Z,4.90
2022-11-15T14:29:50.892Z,4.22
2022-11-15T14:32:29.638Z,3.53
2022-11-15T14:34:57.778Z,4.72
2022-11-15T14:37:36.213Z,2.42
2022-11-15T14:40:05.086Z,2.92
2022-11-15T14:42:31.958Z,3.95
2022-11-15T14:44:58.770Z,4.47
2022-11-15T14:47:25.401Z,4.95
2022-11-15T14:49:52.039Z,11.75
2022-11-15T14:52:36.454Z,11.63
2022-11-15T14:55:11.184Z,4.88
2022-11-15T14:57:37.823Z,8.57
2022-11-15T15:00:05.689Z,7.70
2022-11-15T15:02:43.102Z,10.82
2022-11-15T15:05:20.331Z,3.72
2022-11-15T15:07:47.627Z,3.05
2022-11-15T15:13:02.664Z,3.78
2022-11-15T15:15:34.948Z,7.07
2022-11-15T15:18:02.786Z,5.40
2022-11-15T15:20:30.473Z,3.97
2022-11-15T15:22:57.669Z,3.70
2022-11-15T15:25:30.366Z,5.43
2022-11-15T15:27:57.254Z,13.43
2022-11-15T15:30:24.652Z,19.00
2022-11-15T15:32:51.730Z,12.90
2022-11-15T15:35:19.303Z,8.35
2022-11-15T15:37:47.648Z,8.75
2022-11-15T15:40:18.387Z,8.52
2022-11-15T15:42:45.052Z,5.13
2022-11-15T15:45:12.071Z,7.32
2022-11-15T15:47:39.469Z,6.63
2022-11-15T15:50:28.407Z,6.10
2022-11-15T15:52:59.982Z,10.25
2022-11-15T15:55:27.205Z,4.60
2022-11-15T15:57:54.357Z,4.32
2022-11-15T16:00:24.003Z,5.63
2022-11-15T16:02:50.982Z,6.43
2022-11-15T16:05:18.493Z,6.03
2022-11-15T16:07:47.270Z,10.63
2022-11-15T16:10:29.546Z,7.00
2022-11-15T16:12:57.642Z,9.60
2022-11-15T16:15:26.728Z,22.77
2022-11-15T16:18:01.530Z,13.30
2022-11-15T16:20:45.961Z,8.48
2022-11-15T16:23:15.646Z,8.20
2022-11-15T16:25:58.442Z,8.18
2022-11-15T16:28:33.985Z,11.88
2022-11-15T16:31:02.956Z,11.55
2022-11-15T16:33:29.908Z,5.15
2022-11-15T16:35:56.778Z,6.82
2022-11-15T16:38:23.735Z,4.00
2022-11-15T16:40:50.484Z,7.07
2022-11-15T16:43:17.275Z,5.20
2022-11-15T16:45:44.317Z,4.97
2022-11-15T16:48:25.846Z,4.38
2022-11-15T16:50:57.302Z,4.93
2022-11-15T16:53:24.970Z,4.97
2022-11-15T16:55:51.691Z,4.95
2022-11-15T16:58:18.332Z,4.63
2022-11-15T17:00:45.025Z,4.00
2022-11-15T17:03:12.005Z,3.15
2022-11-15T17:05:38.612Z,4.53
2022-11-15T17:08:06.425Z,6.20
2022-11-15T17:10:33.138Z,3.00
2022-11-15T17:12:59.796Z,3.38
2022-11-15T17:15:26.422Z,6.28
2022-11-15T17:17:54.688Z,9.00
2022-11-15T17:20:24.186Z,4.50
2022-11-15T17:22:51.204Z,4.38
2022-11-15T17:25:18.244Z,21.25
2022-11-15T17:27:44.928Z,7.13
2022-11-15T17:30:15.227Z,15.07
2022-11-15T17:32:43.071Z,13.63
2022-11-15T17:35:15.317Z,8.40
2022-11-15T17:37:43.264Z,6.55
2022-11-15T17:40:10.503Z,3.25
2022-11-15T17:42:37.468Z,4.47
2022-11-15T17:45:09.629Z,7.22
2022-11-15T17:47:37.232Z,7.97
2022-11-15T17:50:04.636Z,9.13
2022-11-15T17:52:31.429Z,11.57
2022-11-15T17:54:58.159Z,9.77
2022-11-15T17:57:24.962Z,9.23
2022-11-15T17:59:51.612Z,8.18
2022-11-15T18:02:19.388Z,9.35
2022-11-15T18:04:46.114Z,9.77
2022-11-15T18:07:13.920Z,13.52
2022-11-15T18:09:43.656Z,10.70
2022-11-15T18:12:11.251Z,11.85
2022-11-15T18:14:37.899Z,7.63
2022-11-15T18:17:04.553Z,7.70
2022-11-15T18:19:31.282Z,7.35
2022-11-15T18:21:58.837Z,8.68
2022-11-15T18:24:28.680Z,13.07
2022-11-15T18:26:55.779Z,9.35
2022-11-15T18:29:24.586Z,20.30
2022-11-15T18:31:55.391Z,36.20
2022-11-15T18:34:24.347Z,13.25
2022-11-15T18:36:52.440Z,9.60
2022-11-15T18:39:19.473Z,8.23
2022-11-15T18:41:46.993Z,4.97
2022-11-15T18:44:14.198Z,2.67
2022-11-15T18:46:41.878Z,3.60
2022-11-15T18:49:09.730Z,2.95
2022-11-15T18:51:41.768Z,4.10
2022-11-15T18:54:10.880Z,4.07
2022-11-15T18:56:38.197Z,7.28
2022-11-15T18:59:05.816Z,5.30
2022-11-15T19:01:35.273Z,4.15
2022-11-15T19:04:08.135Z,4.45
2022-11-15T19:06:38.472Z,4.85
2022-11-15T19:09:05.604Z,5.30
2022-11-15T19:11:35.821Z,3.80
2022-11-15T19:14:10.928Z,3.22
2022-11-15T19:16:44.722Z,3.33
2022-11-15T19:19:14.728Z,3.50
2022-11-15T19:21:42.056Z,3.03
2022-11-15T19:24:10.430Z,3.35
2022-11-15T19:26:37.927Z,2.65
2022-11-15T19:29:06.482Z,3.10
2022-11-15T19:31:33.812Z,3.33
2022-11-15T19:34:03.210Z,3.72
2022-11-15T19:36:35.071Z,3.53
2022-11-15T19:39:05.566Z,3.55
2022-11-15T19:41:32.611Z,3.30
2022-11-15T19:43:59.393Z,3.30
2022-11-15T19:46:26.890Z,3.03
2022-11-15T19:48:53.953Z,3.58
2022-11-15T19:51:23.805Z,5.72
2022-11-15T19:53:56.356Z,3.92
2022-11-15T19:56:23.689Z,3.83
2022-11-15T19:58:54.750Z,4.90
2022-11-15T20:01:22.789Z,3.63
2022-11-15T20:03:51.315Z,4.95
2022-11-15T20:06:19.882Z,4.38
2022-11-15T20:08:47.996Z,4.65
2022-11-15T20:11:16.013Z,5.43
2022-11-15T20:13:43.117Z,3.92
2022-11-15T20:16:18.925Z,4.80
2022-11-15T20:18:46.689Z,3.97
2022-11-15T20:21:13.695Z,3.97
2022-11-15T20:23:40.654Z,10.77
2022-11-15T20:26:08.959Z,4.40
2022-11-15T20:28:37.143Z,4.07
2022-11-15T20:31:04.727Z,13.55
2022-11-15T20:33:31.435Z,42.95
2022-11-15T20:35:58.258Z,69.80
2022-11-15T20:38:25.051Z,32.70
2022-11-15T20:40:56.153Z,28.20
2022-11-15T20:43:26.965Z,17.50
2022-11-15T20:45:53.996Z,11.82
2022-11-15T20:48:20.771Z,10.73
2022-11-15T20:50:47.732Z,8.52
2022-11-15T20:53:16.661Z,5.25
2022-11-15T20:55:47.586Z,7.53
2022-11-15T20:58:15.382Z,6.82
2022-11-15T21:00:43.272Z,5.50
2022-11-15T21:03:10.719Z,5.30
2022-11-15T21:05:38.843Z,56.90
2022-11-15T21:08:06.279Z,46.63
2022-11-15T21:10:51.903Z,25.48
2022-11-15T21:13:18.998Z,16.00
2022-11-15T21:15:45.654Z,12.77
2022-11-15T21:18:12.717Z,6.50
2022-11-15T21:20:39.446Z,5.28
2022-11-15T21:23:06.127Z,10.85
2022-11-15T21:25:34.192Z,6.28
2022-11-15T21:28:01.033Z,5.18
2022-11-15T21:30:27.758Z,5.20
2022-11-15T21:32:54.586Z,7.32
2022-11-15T21:35:21.388Z,18.75
2022-11-15T21:37:53.358Z,16.38
2022-11-15T21:40:23.123Z,14.55
2022-11-15T21:42:49.810Z,11.60
2022-11-15T21:45:16.614Z,11.70
2022-11-15T21:47:45.987Z,6.68
2022-11-15T21:50:13.941Z,8.07
2022-11-15T21:52:41.004Z,6.93
2022-11-15T21:55:08.711Z,7.55
2022-11-15T21:57:35.437Z,7.82
2022-11-15T22:00:20.918Z,8.35
2022-11-15T22:02:47.520Z,5.35
2022-11-15T22:05:14.184Z,6.85
2022-11-15T22:07:40.865Z,6.10
2022-11-15T22:10:07.832Z,7.13
2022-11-15T22:12:34.457Z,6.15
2022-11-15T22:15:01.080Z,4.03
2022-11-15T22:17:47.773Z,4.40
2022-11-15T22:22:58.340Z,6.00
2022-11-15T22:25:25.988Z,6.00
2022-11-15T22:27:53.211Z,6.38
2022-11-15T22:30:20.595Z,5.93
2022-11-15T22:32:47.387Z,4.63
2022-11-15T22:35:14.572Z,4.65
2022-11-15T22:37:41.646Z,5.32
2022-11-15T22:40:09.173Z,4.55
2022-11-15T22:42:35.990Z,4.85
2022-11-15T22:45:02.838Z,6.93
2022-11-15T22:47:30.079Z,7.22
2022-11-15T22:49:56.812Z,8.00
2022-11-15T22:52:23.527Z,7.93
2022-11-15T22:54:50.303Z,8.32
2022-11-15T22:57:17.091Z,7.88
2022-11-15T22:59:43.797Z,7.65
2022-11-15T23:02:10.501Z,7.60
2022-11-15T23:04:37.262Z,6.95
2022-11-15T23:07:04.166Z,6.65
2022-11-15T23:09:30.902Z,4.93
2022-11-15T23:12:16.058Z,5.43
2022-11-15T23:14:42.759Z,5.28
2022-11-15T23:17:09.433Z,6.45
2022-11-15T23:19:36.119Z,5.32
2022-11-15T23:22:21.324Z,4.72
2022-11-15T23:24:48.151Z,6.10
2022-11-15T23:27:19.707Z,4.03
2022-11-15T23:30:05.769Z,5.22
2022-11-15T23:32:51.361Z,6.40
2022-11-15T23:35:18.118Z,6.00
2022-11-15T23:37:45.049Z,5.30
2022-11-15T23:40:12.338Z,5.10
2022-11-15T23:42:39.405Z,6.95
2022-11-15T23:45:06.545Z,5.43
2022-11-15T23:47:33.225Z,5.75
2022-11-15T23:49:59.916Z,6.03
2022-11-15T23:52:26.610Z,5.40
2022-11-15T23:54:53.417Z,5.35
2022-11-15T23:57:20.086Z,5.32
2022-11-15T23:59:47.652Z,5.57
